Time,TemperatureF,DewpointF,PressureIn,WindDirection,WindDirectionDegrees,WindSpeedMPH,WindSpeedGustMPH,Humidity,HourlyPrecipIn,Conditions,Clouds,dailyrainin,SoftwareType,DateUTC
2013-01-07 00:02:00,23.0,-11.0,-100.00,North,-999,-999.0,-999.0,21,-99.99,,,-99.99,,2013-01-07 07:02:00,
2013-01-07 00:11:00,22.0,-6.0,-100.00,North,-999,-999.0,-999.0,27,-99.99,,,-99.99,,2013-01-07 07:11:00,
2013-01-07 00:22:00,22.0,-6.0,-100.00,North,-999,-999.0,-999.0,27,-99.99,,,-99.99,,2013-01-07 07:22:00,
2013-01-07 00:32:00,22.0,-6.0,-100.00,North,-999,-999.0,-999.0,27,-99.99,,,-99.99,,2013-01-07 07:32:00,
2013-01-07 00:42:00,20.0,-4.0,-100.00,North,-999,-999.0,-999.0,34,-99.99,,,-99.99,,2013-01-07 07:42:00,
2013-01-07 00:52:00,20.0,-4.0,-100.00,North,-999,-999.0,-999.0,34,-99.99,,,-99.99,,2013-01-07 07:52:00,
2013-01-07 01:02:00,21.0,-6.0,-100.00,North,-999,-999.0,-999.0,29,-99.99,,,-99.99,,2013-01-07 08:02:00,
2013-01-07 01:11:00,22.0,-7.0,-100.00,North,-999,-999.0,-999.0,27,-99.99,,,-99.99,,2013-01-07 08:11:00,
2013-01-07 01:22:00,22.0,-7.0,-100.00,North,-999,-999.0,-999.0,27,-99.99,,,-99.99,,2013-01-07 08:22:00,
2013-01-07 01:32:00,22.0,-7.0,-100.00,North,-999,-999.0,-999.0,27,-99.99,,,-99.99,,2013-01-07 08:32:00,
2013-01-07 01:42:00,22.0,-6.0,-100.00,North,-999,-999.0,-999.0,28,-99.99,,,-99.99,,2013-01-07 08:42:00,
2013-01-07 01:53:00,21.0,-6.0,-100.00,North,-999,-999.0,-999.0,29,-99.99,,,-99.99,,2013-01-07 08:53:00,
2013-01-07 02:02:00,21.0,-6.0,-100.00,North,-999,-999.0,-999.0,29,-99.99,,,-99.99,,2013-01-07 09:02:00,
2013-01-07 02:12:00,21.0,-6.0,-100.00,North,-999,-999.0,-999.0,28,-99.99,,,-99.99,,2013-01-07 09:12:00,
2013-01-07 02:22:00,21.0,-6.0,-100.00,North,-999,-999.0,-999.0,28,-99.99,,,-99.99,,2013-01-07 09:22:00,
2013-01-07 02:32:00,21.0,-6.0,-100.00,North,-999,-999.0,-999.0,28,-99.99,,,-99.99,,2013-01-07 09:32:00,
2013-01-07 02:42:00,20.0,-4.0,-100.00,North,-999,-999.0,-999.0,33,-99.99,,,-99.99,,2013-01-07 09:42:00,
2013-01-07 02:52:00,20.0,-4.0,-100.00,North,-999,-999.0,-999.0,33,-99.99,,,-99.99,,2013-01-07 09:52:00,
2013-01-07 03:02:00,19.0,-4.0,-100.00,North,-999,-999.0,-999.0,34,-99.99,,,-99.99,,2013-01-07 10:02:00,
2013-01-07 03:12:00,19.0,-4.0,-100.00,North,-999,-999.0,-999.0,33,-99.99,,,-99.99,,2013-01-07 10:12:00,
2013-01-07 03:22:00,19.0,-4.0,-100.00,North,-999,-999.0,-999.0,33,-99.99,,,-99.99,,2013-01-07 10:22:00,
2013-01-07 03:32:00,19.0,-4.0,-100.00,North,-999,-999.0,-999.0,33,-99.99,,,-99.99,,2013-01-07 10:32:00,
2013-01-07 03:42:00,21.0,-7.0,-100.00,North,-999,-999.0,-999.0,28,-99.99,,,-99.99,,2013-01-07 10:42:00,
2013-01-07 03:52:00,21.0,-7.0,-100.00,North,-999,-999.0,-999.0,28,-99.99,,,-99.99,,2013-01-07 10:52:00,
2013-01-07 04:02:00,22.0,-8.0,-100.00,North,-999,-999.0,-999.0,26,-99.99,,,-99.99,,2013-01-07 11:02:00,
2013-01-07 04:12:00,21.0,-10.0,-100.00,North,-999,-999.0,-999.0,23,-99.99,,,-99.99,,2013-01-07 11:12:00,
2013-01-07 04:22:00,21.0,-10.0,-100.00,North,-999,-999.0,-999.0,23,-99.99,,,-99.99,,2013-01-07 11:22:00,
2013-01-07 04:32:00,21.0,-10.0,-100.00,North,-999,-999.0,-999.0,23,-99.99,,,-99.99,,2013-01-07 11:32:00,
2013-01-07 04:43:00,21.0,-15.0,-100.00,North,-999,-999.0,-999.0,19,-99.99,,,-99.99,,2013-01-07 11:43:00,
2013-01-07 04:53:00,21.0,-14.0,-100.00,North,-999,-999.0,-999.0,20,-99.99,,,-99.99,,2013-01-07 11:53:00,
2013-01-07 05:02:00,21.0,-14.0,-100.00,North,-999,-999.0,-999.0,20,-99.99,,,-99.99,,2013-01-07 12:02:00,
2013-01-07 05:12:00,21.0,-14.0,-100.00,North,-999,-999.0,-999.0,19,-99.99,,,-99.99,,2013-01-07 12:12:00,
2013-01-07 05:22:00,21.0,-14.0,-100.00,North,-999,-999.0,-999.0,19,-99.99,,,-99.99,,2013-01-07 12:22:00,
2013-01-07 05:32:00,21.0,-14.0,-100.00,North,-999,-999.0,-999.0,19,-99.99,,,-99.99,,2013-01-07 12:32:00,
2013-01-07 05:43:00,23.0,-14.0,-100.00,North,-999,-999.0,-999.0,18,-99.99,,,-99.99,,2013-01-07 12:43:00,
2013-01-07 05:53:00,23.0,-14.0,-100.00,North,-999,-999.0,-999.0,18,-99.99,,,-99.99,,2013-01-07 12:53:00,
2013-01-07 06:02:00,23.0,-14.0,-100.00,North,-999,-999.0,-999.0,18,-99.99,,,-99.99,,2013-01-07 13:02:00,
2013-01-07 06:12:00,23.0,-13.0,-100.00,North,-999,-999.0,-999.0,18,-99.99,,,-99.99,,2013-01-07 13:12:00,
2013-01-07 06:22:00,23.0,-13.0,-100.00,North,-999,-999.0,-999.0,18,-99.99,,,-99.99,,2013-01-07 13:22:00,
2013-01-07 06:32:00,23.0,-13.0,-100.00,North,-999,-999.0,-999.0,18,-99.99,,,-99.99,,2013-01-07 13:32:00,
2013-01-07 06:42:00,23.0,-12.0,-100.00,North,-999,-999.0,-999.0,19,-99.99,,,-99.99,,2013-01-07 13:42:00,
2013-01-07 06:53:00,23.0,-12.0,-100.00,North,-999,-999.0,-999.0,20,-99.99,,,-99.99,,2013-01-07 13:53:00,
2013-01-07 07:03:00,23.0,-12.0,-100.00,North,-999,-999.0,-999.0,20,-99.99,,,-99.99,,2013-01-07 14:03:00,
2013-01-07 07:12:00,23.0,-11.0,-100.00,North,-999,-999.0,-999.0,20,-99.99,,,-99.99,,2013-01-07 14:12:00,
2013-01-07 07:22:00,23.0,-11.0,-100.00,North,-999,-999.0,-999.0,20,-99.99,,,-99.99,,2013-01-07 14:22:00,
2013-01-07 07:32:00,23.0,-11.0,-100.00,North,-999,-999.0,-999.0,20,-99.99,,,-99.99,,2013-01-07 14:32:00,
2013-01-07 07:42:00,24.0,-12.0,-100.00,North,-999,-999.0,-999.0,19,-99.99,,,-99.99,,2013-01-07 14:42:00,
2013-01-07 07:53:00,24.0,-13.0,-100.00,North,-999,-999.0,-999.0,18,-99.99,,,-99.99,,2013-01-07 14:53:00,
2013-01-07 08:03:00,24.0,-13.0,-100.00,North,-999,-999.0,-999.0,18,-99.99,,,-99.99,,2013-01-07 15:03:00,
2013-01-07 08:12:00,24.0,-13.0,-100.00,North,-999,-999.0,-999.0,18,-99.99,,,-99.99,,2013-01-07 15:12:00,
2013-01-07 08:22:00,24.0,-13.0,-100.00,North,-999,-999.0,-999.0,18,-99.99,,,-99.99,,2013-01-07 15:22:00,
2013-01-07 08:33:00,24.0,-13.0,-100.00,North,-999,-999.0,-999.0,18,-99.99,,,-99.99,,2013-01-07 15:33:00,
2013-01-07 08:42:00,24.0,-12.0,-100.00,North,-999,-999.0,-999.0,18,-99.99,,,-99.99,,2013-01-07 15:42:00,
2013-01-07 08:53:00,24.0,-12.0,-100.00,North,-999,-999.0,-999.0,18,-99.99,,,-99.99,,2013-01-07 15:53:00,
2013-01-07 09:02:00,25.0,-12.0,-100.00,North,-999,-999.0,-999.0,18,-99.99,,,-99.99,,2013-01-07 16:02:00,
2013-01-07 09:12:00,25.0,-12.0,-100.00,North,-999,-999.0,-999.0,18,-99.99,,,-99.99,,2013-01-07 16:12:00,
2013-01-07 09:22:00,25.0,-12.0,-100.00,North,-999,-999.0,-999.0,18,-99.99,,,-99.99,,2013-01-07 16:22:00,
2013-01-07 09:33:00,25.0,-12.0,-100.00,North,-999,-999.0,-999.0,18,-99.99,,,-99.99,,2013-01-07 16:33:00,
2013-01-07 09:42:00,25.0,-12.0,-100.00,North,-999,-999.0,-999.0,18,-99.99,,,-99.99,,2013-01-07 16:42:00,
2013-01-07 09:53:00,25.0,-12.0,-100.00,North,-999,-999.0,-999.0,18,-99.99,,,-99.99,,2013-01-07 16:53:00,
2013-01-07 10:02:00,26.0,-10.0,-100.00,North,-999,-999.0,-999.0,19,-99.99,,,-99.99,,2013-01-07 17:02:00,
2013-01-07 10:12:00,26.0,-10.0,-100.00,North,-999,-999.0,-999.0,20,-99.99,,,-99.99,,2013-01-07 17:12:00,
2013-01-07 10:22:00,26.0,-10.0,-100.00,North,-999,-999.0,-999.0,20,-99.99,,,-99.99,,2013-01-07 17:22:00,
2013-01-07 10:32:00,26.0,-10.0,-100.00,North,-999,-999.0,-999.0,20,-99.99,,,-99.99,,2013-01-07 17:32:00,
2013-01-07 10:42:00,27.0,-6.0,-100.00,North,-999,-999.0,-999.0,23,-99.99,,,-99.99,,2013-01-07 17:42:00,
2013-01-07 10:53:00,28.0,-5.0,-100.00,North,-999,-999.0,-999.0,22,-99.99,,,-99.99,,2013-01-07 17:53:00,
2013-01-07 11:02:00,28.0,-5.0,-100.00,North,-999,-999.0,-999.0,22,-99.99,,,-99.99,,2013-01-07 18:02:00,
2013-01-07 11:12:00,28.0,-5.0,-100.00,North,-999,-999.0,-999.0,22,-99.99,,,-99.99,,2013-01-07 18:12:00,
2013-01-07 11:23:00,28.0,-5.0,-100.00,North,-999,-999.0,-999.0,22,-99.99,,,-99.99,,2013-01-07 18:23:00,
2013-01-07 11:32:00,28.0,-5.0,-100.00,North,-999,-999.0,-999.0,22,-99.99,,,-99.99,,2013-01-07 18:32:00,
2013-01-07 11:42:00,29.0,-5.0,-100.00,North,-999,-999.0,-999.0,22,-99.99,,,-99.99,,2013-01-07 18:42:00,
2013-01-07 11:53:00,29.0,-5.0,-100.00,North,-999,-999.0,-999.0,22,-99.99,,,-99.99,,2013-01-07 18:53:00,
2013-01-07 12:03:00,29.0,-6.0,-100.00,North,-999,-999.0,-999.0,21,-99.99,,,-99.99,,2013-01-07 19:03:00,
2013-01-07 12:12:00,29.0,-6.0,-100.00,North,-999,-999.0,-999.0,20,-99.99,,,-99.99,,2013-01-07 19:12:00,
2013-01-07 12:22:00,29.0,-6.0,-100.00,North,-999,-999.0,-999.0,20,-99.99,,,-99.99,,2013-01-07 19:22:00,
2013-01-07 12:33:00,29.0,-6.0,-100.00,North,-999,-999.0,-999.0,20,-99.99,,,-99.99,,2013-01-07 19:33:00,
2013-01-07 12:42:00,33.0,-3.0,-100.00,North,-999,-999.0,-999.0,20,-99.99,,,-99.99,,2013-01-07 19:42:00,
2013-01-07 12:53:00,33.0,-3.0,-100.00,North,-999,-999.0,-999.0,20,-99.99,,,-99.99,,2013-01-07 19:53:00,
2013-01-07 13:02:00,32.0,-1.0,-100.00,North,-999,-999.0,-999.0,23,-99.99,,,-99.99,,2013-01-07 20:02:00,
2013-01-07 13:12:00,32.0,0.0,-100.00,North,-999,-999.0,-999.0,25,-99.99,,,-99.99,,2013-01-07 20:12:00,
2013-01-07 13:22:00,32.0,0.0,-100.00,North,-999,-999.0,-999.0,25,-99.99,,,-99.99,,2013-01-07 20:22:00,
2013-01-07 13:32:00,32.0,0.0,-100.00,North,-999,-999.0,-999.0,25,-99.99,,,-99.99,,2013-01-07 20:32:00,
2013-01-07 13:42:00,31.0,1.0,-100.00,North,-999,-999.0,-999.0,27,-99.99,,,-99.99,,2013-01-07 20:42:00,
2013-01-07 13:53:00,31.0,1.0,-100.00,North,-999,-999.0,-999.0,27,-99.99,,,-99.99,,2013-01-07 20:53:00,
2013-01-07 14:02:00,30.0,2.0,-100.00,North,-999,-999.0,-999.0,28,-99.99,,,-99.99,,2013-01-07 21:02:00,
2013-01-07 14:12:00,31.0,2.0,-100.00,North,-999,-999.0,-999.0,29,-99.99,,,-99.99,,2013-01-07 21:12:00,
2013-01-07 14:22:00,31.0,2.0,-100.00,North,-999,-999.0,-999.0,29,-99.99,,,-99.99,,2013-01-07 21:22:00,
2013-01-07 14:32:00,31.0,2.0,-100.00,North,-999,-999.0,-999.0,29,-99.99,,,-99.99,,2013-01-07 21:32:00,
2013-01-07 14:42:00,30.0,5.0,-100.00,North,-999,-999.0,-999.0,34,-99.99,,,-99.99,,2013-01-07 21:42:00,
2013-01-07 14:53:00,30.0,5.0,-100.00,North,-999,-999.0,-999.0,34,-99.99,,,-99.99,,2013-01-07 21:53:00,
2013-01-07 15:02:00,30.0,7.0,-100.00,North,-999,-999.0,-999.0,38,-99.99,,,-99.99,,2013-01-07 22:02:00,
2013-01-07 15:12:00,29.0,9.0,-100.00,North,-999,-999.0,-999.0,40,-99.99,,,-99.99,,2013-01-07 22:12:00,
2013-01-07 15:22:00,29.0,9.0,-100.00,North,-999,-999.0,-999.0,40,-99.99,,,-99.99,,2013-01-07 22:22:00,
2013-01-07 15:33:00,29.0,9.0,-100.00,North,-999,-999.0,-999.0,40,-99.99,,,-99.99,,2013-01-07 22:33:00,
2013-01-07 15:42:00,29.0,10.0,-100.00,North,-999,-999.0,-999.0,43,-99.99,,,-99.99,,2013-01-07 22:42:00,
2013-01-07 15:53:00,29.0,10.0,-100.00,North,-999,-999.0,-999.0,43,-99.99,,,-99.99,,2013-01-07 22:53:00,
2013-01-07 16:02:00,28.0,10.0,-100.00,North,-999,-999.0,-999.0,45,-99.99,,,-99.99,,2013-01-07 23:02:00,
2013-01-07 16:12:00,27.0,11.0,-100.00,North,-999,-999.0,-999.0,49,-99.99,,,-99.99,,2013-01-07 23:12:00,
2013-01-07 16:22:00,27.0,11.0,-100.00,North,-999,-999.0,-999.0,49,-99.99,,,-99.99,,2013-01-07 23:22:00,
2013-01-07 16:32:00,27.0,11.0,-100.00,North,-999,-999.0,-999.0,49,-99.99,,,-99.99,,2013-01-07 23:32:00,
2013-01-07 16:42:00,26.0,10.0,-100.00,North,-999,-999.0,-999.0,50,-99.99,,,-99.99,,2013-01-07 23:42:00,
2013-01-07 16:53:00,26.0,10.0,-100.00,North,-999,-999.0,-999.0,50,-99.99,,,-99.99,,2013-01-07 23:53:00,
2013-01-07 17:02:00,26.0,10.0,-100.00,North,-999,-999.0,-999.0,50,-99.99,,,-99.99,,2013-01-08 00:02:00,
2013-01-07 17:12:00,25.0,9.0,-100.00,North,-999,-999.0,-999.0,50,-99.99,,,-99.99,,2013-01-08 00:12:00,
2013-01-07 17:22:00,25.0,9.0,-100.00,North,-999,-999.0,-999.0,50,-99.99,,,-99.99,,2013-01-08 00:22:00,
2013-01-07 17:32:00,25.0,9.0,-100.00,North,-999,-999.0,-999.0,50,-99.99,,,-99.99,,2013-01-08 00:32:00,
2013-01-07 17:42:00,23.0,10.0,-100.00,North,-999,-999.0,-999.0,55,-99.99,,,-99.99,,2013-01-08 00:42:00,
2013-01-07 17:52:00,23.0,10.0,-100.00,North,-999,-999.0,-999.0,55,-99.99,,,-99.99,,2013-01-08 00:52:00,
2013-01-07 18:02:00,23.0,10.0,-100.00,North,-999,-999.0,-999.0,56,-99.99,,,-99.99,,2013-01-08 01:02:00,
2013-01-07 18:12:00,22.0,9.0,-100.00,North,-999,-999.0,-999.0,56,-99.99,,,-99.99,,2013-01-08 01:12:00,
2013-01-07 18:22:00,22.0,9.0,-100.00,North,-999,-999.0,-999.0,56,-99.99,,,-99.99,,2013-01-08 01:22:00,
2013-01-07 18:32:00,22.0,9.0,-100.00,North,-999,-999.0,-999.0,56,-99.99,,,-99.99,,2013-01-08 01:32:00,
2013-01-07 18:42:00,22.0,7.0,-100.00,North,-999,-999.0,-999.0,52,-99.99,,,-99.99,,2013-01-08 01:42:00,
2013-01-07 18:52:00,22.0,7.0,-100.00,North,-999,-999.0,-999.0,52,-99.99,,,-99.99,,2013-01-08 01:52:00,
2013-01-07 19:02:00,22.0,7.0,-100.00,North,-999,-999.0,-999.0,52,-99.99,,,-99.99,,2013-01-08 02:02:00,
2013-01-07 19:12:00,22.0,9.0,-100.00,North,-999,-999.0,-999.0,57,-99.99,,,-99.99,,2013-01-08 02:12:00,
2013-01-07 19:22:00,22.0,9.0,-100.00,North,-999,-999.0,-999.0,57,-99.99,,,-99.99,,2013-01-08 02:22:00,
2013-01-07 19:32:00,22.0,9.0,-100.00,North,-999,-999.0,-999.0,57,-99.99,,,-99.99,,2013-01-08 02:32:00,
2013-01-07 19:42:00,21.0,10.0,-100.00,North,-999,-999.0,-999.0,60,-99.99,,,-99.99,,2013-01-08 02:42:00,
2013-01-07 19:53:00,21.0,12.0,-100.00,North,-999,-999.0,-999.0,66,-99.99,,,-99.99,,2013-01-08 02:53:00,
2013-01-07 20:03:00,21.0,12.0,-100.00,North,-999,-999.0,-999.0,66,-99.99,,,-99.99,,2013-01-08 03:03:00,
2013-01-07 20:12:00,22.0,16.0,-100.00,North,-999,-999.0,-999.0,77,-99.99,,,-99.99,,2013-01-08 03:12:00,
2013-01-07 20:22:00,22.0,16.0,-100.00,North,-999,-999.0,-999.0,77,-99.99,,,-99.99,,2013-01-08 03:22:00,
2013-01-07 20:32:00,22.0,16.0,-100.00,North,-999,-999.0,-999.0,77,-99.99,,,-99.99,,2013-01-08 03:32:00,
2013-01-07 20:42:00,23.0,19.0,-100.00,North,-999,-999.0,-999.0,85,-99.99,,,-99.99,,2013-01-08 03:42:00,
2013-01-07 20:53:00,23.0,19.0,-100.00,North,-999,-999.0,-999.0,85,-99.99,,,-99.99,,2013-01-08 03:53:00,
2013-01-07 21:02:00,23.0,20.0,-100.00,North,-999,-999.0,-999.0,87,-99.99,,,-99.99,,2013-01-08 04:02:00,
2013-01-07 21:12:00,23.0,20.0,-100.00,North,-999,-999.0,-999.0,89,-99.99,,,-99.99,,2013-01-08 04:12:00,
2013-01-07 21:22:00,23.0,20.0,-100.00,North,-999,-999.0,-999.0,89,-99.99,,,-99.99,,2013-01-08 04:22:00,
2013-01-07 21:32:00,23.0,20.0,-100.00,North,-999,-999.0,-999.0,89,-99.99,,,-99.99,,2013-01-08 04:32:00,
2013-01-07 21:42:00,23.0,20.0,-100.00,North,-999,-999.0,-999.0,90,-99.99,,,-99.99,,2013-01-08 04:42:00,
2013-01-07 21:52:00,23.0,20.0,-100.00,North,-999,-999.0,-999.0,90,-99.99,,,-99.99,,2013-01-08 04:52:00,
2013-01-07 22:03:00,21.0,20.0,-100.00,North,-999,-999.0,-999.0,93,-99.99,,,-99.99,,2013-01-08 05:03:00,
2013-01-07 22:12:00,21.0,20.0,-100.00,North,-999,-999.0,-999.0,96,-99.99,,,-99.99,,2013-01-08 05:12:00,
2013-01-07 22:22:00,21.0,20.0,-100.00,North,-999,-999.0,-999.0,96,-99.99,,,-99.99,,2013-01-08 05:22:00,
2013-01-07 22:32:00,21.0,20.0,-100.00,North,-999,-999.0,-999.0,96,-99.99,,,-99.99,,2013-01-08 05:32:00,
2013-01-07 22:42:00,21.0,21.0,-100.00,North,-999,-999.0,-999.0,97,-99.99,,,-99.99,,2013-01-08 05:42:00,
2013-01-07 22:53:00,21.0,21.0,-100.00,North,-999,-999.0,-999.0,97,-99.99,,,-99.99,,2013-01-08 05:53:00,
2013-01-07 23:02:00,21.0,21.0,-100.00,North,-999,-999.0,-999.0,97,-99.99,,,-99.99,,2013-01-08 06:02:00,
2013-01-07 23:12:00,21.0,21.0,-100.00,North,-999,-999.0,-999.0,97,-99.99,,,-99.99,,2013-01-08 06:12:00,
2013-01-07 23:22:00,21.0,21.0,-100.00,North,-999,-999.0,-999.0,97,-99.99,,,-99.99,,2013-01-08 06:22:00,
2013-01-07 23:32:00,21.0,21.0,-100.00,North,-999,-999.0,-999.0,97,-99.99,,,-99.99,,2013-01-08 06:32:00,
2013-01-07 23:42:00,21.0,21.0,-100.00,North,-999,-999.0,-999.0,97,-99.99,,,-99.99,,2013-01-08 06:42:00,
2013-01-07 23:53:00,21.0,21.0,-100.00,North,-999,-999.0,-999.0,97,-99.99,,,-99.99,,2013-01-08 06:53:00,